createdAt,value
2022-11-25T00:00:29.017Z,74.93
2022-11-25T00:03:20.613Z,74.99
2022-11-25T00:05:53.365Z,74.91
2022-11-25T00:08:25.976Z,75.00
2022-11-25T00:11:01.450Z,74.75
2022-11-25T00:13:33.770Z,74.91
2022-11-25T00:16:07.184Z,75.08
2022-11-25T00:18:39.101Z,75.07
2022-11-25T00:21:13.075Z,75.13
2022-11-25T00:23:44.866Z,74.85
2022-11-25T00:26:17.960Z,74.94
2022-11-25T00:28:50.283Z,74.98
2022-11-25T00:31:25.531Z,75.12
2022-11-25T00:33:57.810Z,75.03
2022-11-25T00:36:32.461Z,74.94
2022-11-25T00:39:06.425Z,74.94
2022-11-25T00:41:55.779Z,75.11
2022-11-25T00:44:37.853Z,75.18
2022-11-25T00:47:12.213Z,75.10
2022-11-25T00:49:42.720Z,75.07
2022-11-25T00:52:17.265Z,75.22
2022-11-25T00:54:49.830Z,75.13
2022-11-25T00:57:24.916Z,75.10
2022-11-25T00:59:56.453Z,75.22
2022-11-25T01:02:28.054Z,75.12
2022-11-25T01:04:59.779Z,75.38
2022-11-25T01:07:31.503Z,75.29
2022-11-25T01:10:03.025Z,75.17
2022-11-25T01:12:34.523Z,75.16
2022-11-25T01:15:07.517Z,75.32
2022-11-25T01:17:39.007Z,75.20
2022-11-25T01:20:12.932Z,75.24
2022-11-25T01:22:44.555Z,75.34
2022-11-25T01:25:16.502Z,75.23
2022-11-25T01:27:48.001Z,75.24
2022-11-25T01:30:19.916Z,75.23
2022-11-25T01:32:51.443Z,75.15
2022-11-25T01:35:22.917Z,75.25
2022-11-25T01:37:54.397Z,75.25
2022-11-25T01:40:25.926Z,75.30
2022-11-25T01:42:57.441Z,75.30
2022-11-25T01:45:40.142Z,75.35
2022-11-25T01:48:18.099Z,75.42
2022-11-25T01:50:50.784Z,75.46
2022-11-25T01:53:23.140Z,75.33
2022-11-25T01:55:59.659Z,75.50
2022-11-25T01:58:35.144Z,75.55
2022-11-25T02:01:07.312Z,75.63
2022-11-25T02:03:43.072Z,75.58
2022-11-25T02:06:20.200Z,75.58
2022-11-25T02:08:55.337Z,75.66
2022-11-25T02:11:30.718Z,75.49
2022-11-25T02:14:03.606Z,75.63
2022-11-25T02:16:35.189Z,75.53
2022-11-25T02:19:07.893Z,75.62
2022-11-25T02:21:47.929Z,75.74
2022-11-25T02:24:24.194Z,75.57
2022-11-25T02:26:55.747Z,75.76
2022-11-25T02:29:28.648Z,75.70
2022-11-25T02:32:00.275Z,75.56
2022-11-25T02:34:31.929Z,75.67
2022-11-25T02:37:04.166Z,75.74
2022-11-25T02:39:35.689Z,75.63
2022-11-25T02:42:08.022Z,75.65
2022-11-25T02:44:39.521Z,75.72
2022-11-25T02:47:11.079Z,75.73
2022-11-25T02:49:42.612Z,75.73
2022-11-25T02:52:14.113Z,75.69
2022-11-25T02:54:45.578Z,75.75
2022-11-25T02:57:17.081Z,75.87
2022-11-25T02:59:48.651Z,75.71
2022-11-25T03:02:20.354Z,75.73
2022-11-25T03:04:51.827Z,75.76
2022-11-25T03:07:23.391Z,75.87
2022-11-25T03:09:55.041Z,75.81
2022-11-25T03:12:26.565Z,75.72
2022-11-25T03:14:58.109Z,75.76
2022-11-25T03:17:29.640Z,75.68
2022-11-25T03:20:01.327Z,75.73
2022-11-25T03:22:32.797Z,75.81
2022-11-25T03:25:04.901Z,75.66
2022-11-25T03:27:38.208Z,75.84
2022-11-25T03:30:13.595Z,75.77
2022-11-25T03:32:45.176Z,75.75
2022-11-25T03:35:17.627Z,75.69
2022-11-25T03:37:49.554Z,75.84
2022-11-25T03:40:21.339Z,75.74
2022-11-25T03:42:52.878Z,75.81
2022-11-25T03:45:24.475Z,75.88
2022-11-25T03:47:55.997Z,75.93
2022-11-25T03:50:27.580Z,75.98
2022-11-25T03:52:59.212Z,75.77
2022-11-25T03:55:30.778Z,75.82
2022-11-25T03:58:02.320Z,75.96
2022-11-25T04:00:34.084Z,76.00
2022-11-25T04:03:05.726Z,75.93
2022-11-25T04:05:37.401Z,75.82
2022-11-25T04:08:09.204Z,75.70
2022-11-25T04:10:40.771Z,75.82
2022-11-25T04:13:12.300Z,75.85
2022-11-25T04:15:48.655Z,75.91
2022-11-25T04:18:21.097Z,75.93
2022-11-25T04:20:52.771Z,76.08
2022-11-25T04:23:24.450Z,76.12
2022-11-25T04:25:55.997Z,76.13
2022-11-25T04:28:27.479Z,76.13
2022-11-25T04:30:59.073Z,76.17
2022-11-25T04:33:30.889Z,76.04
2022-11-25T04:36:02.538Z,76.17
2022-11-25T04:38:34.106Z,76.17
2022-11-25T04:41:05.799Z,76.03
2022-11-25T04:43:37.486Z,76.09
2022-11-25T04:46:14.727Z,76.21
2022-11-25T04:48:46.809Z,76.24
2022-11-25T04:51:18.648Z,76.13
2022-11-25T04:53:50.103Z,76.15
2022-11-25T04:56:22.268Z,76.17
2022-11-25T04:59:11.148Z,76.12
2022-11-25T05:01:42.818Z,76.16
2022-11-25T05:04:14.493Z,76.17
2022-11-25T05:06:46.174Z,76.16
2022-11-25T05:09:17.677Z,76.21
2022-11-25T05:11:49.555Z,76.34
2022-11-25T05:14:22.731Z,76.15
2022-11-25T05:16:54.477Z,76.24
2022-11-25T05:19:26.156Z,76.28
2022-11-25T05:21:57.914Z,76.28
2022-11-25T05:24:29.656Z,76.43
2022-11-25T05:27:01.417Z,76.36
2022-11-25T05:29:32.967Z,76.37
2022-11-25T05:32:04.964Z,76.32
2022-11-25T05:34:36.627Z,76.25
2022-11-25T05:37:09.441Z,76.32
2022-11-25T05:39:41.344Z,76.26
2022-11-25T05:42:12.875Z,76.30
2022-11-25T05:44:44.417Z,76.25
2022-11-25T05:47:15.929Z,76.32
2022-11-25T05:49:47.408Z,76.34
2022-11-25T05:52:18.895Z,76.30
2022-11-25T05:54:54.395Z,76.44
2022-11-25T05:57:29.203Z,76.33
2022-11-25T06:00:00.725Z,76.38
2022-11-25T06:02:32.367Z,76.34
2022-11-25T06:05:04.460Z,76.43
2022-11-25T06:07:36.039Z,76.45
2022-11-25T06:10:10.750Z,76.37
2022-11-25T06:12:42.266Z,76.42
2022-11-25T06:15:14.916Z,76.48
2022-11-25T06:17:46.917Z,76.55
2022-11-25T06:20:18.823Z,76.46
2022-11-25T06:22:50.653Z,76.39
2022-11-25T06:25:22.372Z,76.49
2022-11-25T06:30:45.878Z,76.44
2022-11-25T06:33:17.698Z,76.43
2022-11-25T06:35:49.299Z,76.49
2022-11-25T06:38:20.819Z,76.46
2022-11-25T06:40:54.139Z,76.46
2022-11-25T06:43:28.288Z,76.54
2022-11-25T06:46:04.755Z,76.46
2022-11-25T06:48:38.840Z,76.32
2022-11-25T06:51:14.928Z,76.29
2022-11-25T06:53:47.045Z,76.23
2022-11-25T06:56:21.111Z,76.23
2022-11-25T06:58:53.466Z,76.22
2022-11-25T07:01:27.176Z,76.11
2022-11-25T07:04:03.208Z,75.99
2022-11-25T07:06:35.112Z,75.98
2022-11-25T07:09:07.577Z,76.00
2022-11-25T07:11:41.073Z,75.95
2022-11-25T07:14:15.578Z,75.96
2022-11-25T07:16:48.652Z,76.00
2022-11-25T07:19:21.531Z,75.88
2022-11-25T07:21:53.118Z,75.95
2022-11-25T07:24:24.786Z,75.98
2022-11-25T07:26:56.351Z,75.94
2022-11-25T07:32:19.725Z,76.04
2022-11-25T07:34:52.789Z,75.98
2022-11-25T07:37:25.358Z,75.96
2022-11-25T07:39:56.987Z,76.07
2022-11-25T07:42:28.520Z,76.02
2022-11-25T07:45:00.407Z,76.05
2022-11-25T07:47:34.639Z,76.14
2022-11-25T07:50:07.873Z,76.03
2022-11-25T07:52:41.952Z,76.12
2022-11-25T07:55:13.621Z,76.27
2022-11-25T07:57:45.162Z,76.21
2022-11-25T08:00:18.983Z,76.11
2022-11-25T08:02:50.978Z,76.23
2022-11-25T08:05:22.653Z,76.21
2022-11-25T08:07:54.239Z,76.16
2022-11-25T08:10:25.949Z,76.23
2022-11-25T08:12:57.525Z,76.16
2022-11-25T08:15:29.143Z,76.16
2022-11-25T08:18:00.713Z,76.18
2022-11-25T08:20:32.289Z,76.31
2022-11-25T08:23:04.002Z,76.25
2022-11-25T08:25:39.948Z,76.27
2022-11-25T08:28:11.848Z,76.30
2022-11-25T08:30:43.368Z,76.31
2022-11-25T08:33:14.894Z,76.39
2022-11-25T08:35:53.625Z,76.44
2022-11-25T08:38:25.630Z,76.45
2022-11-25T08:40:57.770Z,76.43
2022-11-25T08:43:30.174Z,76.46
2022-11-25T08:46:01.726Z,76.50
2022-11-25T08:48:34.115Z,76.45
2022-11-25T08:51:11.329Z,76.56
2022-11-25T08:53:43.962Z,76.63
2022-11-25T08:56:16.158Z,76.62
2022-11-25T08:58:48.842Z,76.60
2022-11-25T09:01:21.775Z,76.55
2022-11-25T09:03:57.057Z,76.64
2022-11-25T09:06:30.181Z,76.65
2022-11-25T09:09:02.649Z,76.63
2022-11-25T09:11:34.224Z,76.66
2022-11-25T09:14:05.807Z,76.77
2022-11-25T09:16:37.618Z,76.69
2022-11-25T09:19:09.355Z,76.71
2022-11-25T09:21:40.860Z,76.83
2022-11-25T09:24:13.231Z,76.90
2022-11-25T09:26:45.214Z,76.84
2022-11-25T09:29:16.924Z,76.95
2022-11-25T09:31:54.493Z,76.81
2022-11-25T09:34:26.693Z,76.92
2022-11-25T09:36:58.244Z,76.81
2022-11-25T09:39:30.959Z,76.91
2022-11-25T09:42:40.440Z,77.02
2022-11-25T09:45:38.659Z,77.01
2022-11-25T09:48:27.361Z,76.93
2022-11-25T09:51:08.765Z,76.59
2022-11-25T09:53:47.688Z,76.28
2022-11-25T09:56:29.786Z,76.17
2022-11-25T09:59:08.301Z,75.69
2022-11-25T10:01:48.763Z,75.61
2022-11-25T10:04:26.886Z,75.61
2022-11-25T10:07:02.483Z,75.77
2022-11-25T10:09:36.884Z,75.60
2022-11-25T10:12:19.106Z,75.49
2022-11-25T10:14:55.129Z,75.28
2022-11-25T10:17:36.809Z,75.49
2022-11-25T10:20:14.032Z,75.64
2022-11-25T10:22:47.790Z,75.48
2022-11-25T10:25:20.122Z,75.34
2022-11-25T10:27:58.344Z,75.58
2022-11-25T10:30:36.732Z,75.68
2022-11-25T10:33:17.877Z,75.59
2022-11-25T10:35:53.687Z,75.72
2022-11-25T10:38:31.375Z,75.69
2022-11-25T10:41:05.162Z,75.75
2022-11-25T10:43:35.530Z,75.58
2022-11-25T10:46:12.502Z,75.48
2022-11-25T10:48:55.639Z,75.43
2022-11-25T10:51:42.182Z,75.40
2022-11-25T10:54:18.697Z,75.34
2022-11-25T10:56:57.612Z,75.27
2022-11-25T10:59:33.478Z,75.24
2022-11-25T11:02:22.278Z,75.12
2022-11-25T11:05:01.261Z,75.02
2022-11-25T11:07:34.546Z,75.01
2022-11-25T11:10:18.653Z,75.00
2022-11-25T11:12:59.015Z,74.98
2022-11-25T11:15:32.271Z,74.93
2022-11-25T11:18:25.053Z,74.88
2022-11-25T11:21:00.552Z,74.88
2022-11-25T11:23:47.728Z,74.80
2022-11-25T11:26:26.236Z,74.87
2022-11-25T11:29:12.676Z,74.73
2022-11-25T11:31:50.039Z,74.73
2022-11-25T11:34:48.099Z,74.62
2022-11-25T11:37:37.703Z,74.48
2022-11-25T11:40:26.973Z,74.39
2022-11-25T11:43:21.507Z,74.26
2022-11-25T11:46:07.087Z,74.39
2022-11-25T11:48:41.942Z,74.39
2022-11-25T11:51:29.125Z,74.35
2022-11-25T11:54:09.426Z,74.28
2022-11-25T11:56:43.880Z,74.28
2022-11-25T11:59:49.699Z,74.33
2022-11-25T12:02:32.796Z,74.50
2022-11-25T12:05:19.630Z,74.59
2022-11-25T12:08:01.779Z,74.59
2022-11-25T12:10:38.919Z,74.71
2022-11-25T12:13:18.380Z,74.57
2022-11-25T12:15:56.367Z,74.25
2022-11-25T12:18:41.959Z,73.84
2022-11-25T12:21:28.929Z,73.89
2022-11-25T12:24:06.061Z,73.86
2022-11-25T12:26:46.878Z,73.67
2022-11-25T12:29:26.462Z,73.82
2022-11-25T12:32:04.704Z,73.58
2022-11-25T12:34:44.723Z,73.50
2022-11-25T12:37:25.084Z,73.31
2022-11-25T12:40:06.086Z,73.34
2022-11-25T12:42:41.314Z,73.23
2022-11-25T12:45:21.771Z,73.23
2022-11-25T12:47:54.405Z,73.20
2022-11-25T12:50:39.083Z,73.15
2022-11-25T12:53:17.488Z,73.24
2022-11-25T12:55:48.993Z,73.38
2022-11-25T12:58:40.789Z,73.52
2022-11-25T13:01:26.935Z,73.44
2022-11-25T13:04:30.716Z,73.44
2022-11-25T13:07:25.024Z,73.55
2022-11-25T13:10:27.231Z,73.58
2022-11-25T13:13:18.258Z,73.58
2022-11-25T13:15:53.411Z,73.67
2022-11-25T13:18:28.101Z,73.62
2022-11-25T13:21:09.397Z,73.76
2022-11-25T13:23:49.777Z,73.66
2022-11-25T13:26:51.630Z,73.66
2022-11-25T13:30:01.201Z,73.73
2022-11-25T13:32:40.195Z,73.74
2022-11-25T13:35:35.874Z,73.79
2022-11-25T13:38:47.854Z,73.79
2022-11-25T13:41:37.853Z,73.91
2022-11-25T13:44:28.191Z,73.86
2022-11-25T13:47:02.901Z,74.00
2022-11-25T13:49:44.284Z,73.93
2022-11-25T13:52:41.793Z,74.08
2022-11-25T13:55:32.995Z,74.24
2022-11-25T13:58:15.621Z,74.12
2022-11-25T14:01:05.930Z,74.11
2022-11-25T14:04:00.154Z,74.17
2022-11-25T14:07:02.857Z,74.33
2022-11-25T14:09:58.126Z,74.30
2022-11-25T14:12:49.299Z,74.26
2022-11-25T14:15:48.886Z,74.31
2022-11-25T14:19:16.939Z,74.44
2022-11-25T14:21:56.401Z,74.53
2022-11-25T14:24:38.263Z,74.58
2022-11-25T14:27:17.776Z,74.64
2022-11-25T14:29:53.955Z,74.64
2022-11-25T14:32:30.361Z,74.67
2022-11-25T14:35:09.320Z,74.83
2022-11-25T14:37:47.236Z,74.83
2022-11-25T14:40:23.033Z,74.84
2022-11-25T14:43:00.496Z,74.92
2022-11-25T14:45:34.444Z,74.81
2022-11-25T14:48:18.272Z,75.00
2022-11-25T14:51:00.733Z,74.98
2022-11-25T14:53:43.007Z,74.95
2022-11-25T14:56:25.091Z,75.01
2022-11-25T14:58:58.873Z,75.06
2022-11-25T15:01:29.590Z,75.05
2022-11-25T15:04:14.821Z,75.08
2022-11-25T15:06:52.519Z,75.13
2022-11-25T15:09:26.860Z,75.22
2022-11-25T15:12:02.270Z,75.26
2022-11-25T15:14:37.496Z,75.36
2022-11-25T15:17:21.653Z,75.31
2022-11-25T15:19:54.752Z,75.38
2022-11-25T15:22:26.562Z,75.37
2022-11-25T15:25:09.960Z,75.49
2022-11-25T15:27:46.939Z,75.46
2022-11-25T15:30:24.687Z,75.57
2022-11-25T15:32:57.557Z,75.52
2022-11-25T15:35:30.459Z,75.56
2022-11-25T15:38:17.263Z,75.53
2022-11-25T15:40:57.584Z,75.56
2022-11-25T15:43:31.740Z,75.66
2022-11-25T15:46:06.300Z,75.76
2022-11-25T15:48:42.209Z,75.74
2022-11-25T15:51:26.148Z,75.84
2022-11-25T15:54:03.013Z,75.87
2022-11-25T15:56:38.797Z,75.83
2022-11-25T15:59:42.708Z,75.94
2022-11-25T16:02:39.586Z,76.01
2022-11-25T16:05:31.996Z,76.04
2022-11-25T16:08:24.669Z,76.03
2022-11-25T16:11:01.018Z,76.06
2022-11-25T16:13:40.155Z,75.93
2022-11-25T16:16:21.498Z,76.04
2022-11-25T16:19:12.722Z,76.14
2022-11-25T16:21:51.081Z,76.15
2022-11-25T16:24:35.244Z,76.11
2022-11-25T16:27:15.094Z,76.14
2022-11-25T16:29:54.378Z,76.08
2022-11-25T16:32:28.000Z,76.19
2022-11-25T16:35:12.653Z,76.35
2022-11-25T16:40:39.196Z,76.37
2022-11-25T16:43:18.709Z,76.42
2022-11-25T16:45:53.079Z,76.39
2022-11-25T16:48:25.645Z,76.35
2022-11-25T16:50:58.433Z,76.34
2022-11-25T16:53:30.096Z,76.40
2022-11-25T16:56:02.999Z,76.36
2022-11-25T16:58:34.552Z,76.36
2022-11-25T17:01:06.606Z,76.45
2022-11-25T17:03:38.404Z,76.41
2022-11-25T17:06:21.717Z,76.35
2022-11-25T17:08:54.165Z,76.35
2022-11-25T17:11:30.440Z,76.25
2022-11-25T17:14:05.107Z,76.35
2022-11-25T17:16:37.179Z,76.26
2022-11-25T17:19:13.997Z,76.49
2022-11-25T17:21:46.164Z,76.53
2022-11-25T17:24:21.431Z,76.52
2022-11-25T17:26:57.216Z,76.48
2022-11-25T17:29:35.472Z,76.56
2022-11-25T17:32:08.195Z,76.62
2022-11-25T17:34:40.136Z,76.65
2022-11-25T17:37:18.058Z,76.55
2022-11-25T17:39:50.523Z,76.60
2022-11-25T17:42:28.691Z,76.68
2022-11-25T17:45:01.319Z,76.65
2022-11-25T17:47:33.043Z,76.72
2022-11-25T17:50:06.654Z,76.68
2022-11-25T17:52:38.271Z,76.76
2022-11-25T17:55:10.963Z,76.81
2022-11-25T17:57:42.648Z,76.67
2022-11-25T18:00:18.923Z,76.82
2022-11-25T18:02:51.193Z,76.94
2022-11-25T18:05:25.153Z,77.15
2022-11-25T18:07:56.984Z,77.12
2022-11-25T18:10:30.385Z,77.19
2022-11-25T18:13:03.669Z,77.28
2022-11-25T18:15:35.809Z,77.41
2022-11-25T18:18:23.439Z,77.35
2022-11-25T18:20:55.938Z,77.43
2022-11-25T18:23:27.594Z,77.44
2022-11-25T18:26:02.168Z,77.46
2022-11-25T18:28:34.432Z,77.52
2022-11-25T18:31:07.916Z,77.53
2022-11-25T18:33:40.612Z,77.50
2022-11-25T18:36:15.284Z,77.61
2022-11-25T18:38:48.309Z,77.68
2022-11-25T18:41:22.880Z,77.64
2022-11-25T18:43:54.740Z,77.72
2022-11-25T18:46:26.699Z,77.56
2022-11-25T18:48:58.296Z,77.55
2022-11-25T18:51:29.894Z,77.57
2022-11-25T18:54:01.553Z,77.63
2022-11-25T18:56:33.859Z,77.62
2022-11-25T18:59:17.666Z,77.56
2022-11-25T19:01:50.138Z,77.57
2022-11-25T19:04:21.748Z,77.51
2022-11-25T19:06:53.594Z,77.56
2022-11-25T19:09:25.058Z,77.49
2022-11-25T19:11:56.930Z,77.51
2022-11-25T19:14:33.248Z,77.49
2022-11-25T19:17:08.971Z,77.52
2022-11-25T19:19:42.642Z,77.56
2022-11-25T19:22:17.696Z,77.57
2022-11-25T19:24:50.286Z,77.55
2022-11-25T19:27:24.613Z,77.53
2022-11-25T19:29:56.133Z,77.52
2022-11-25T19:32:29.872Z,77.53
2022-11-25T19:35:02.039Z,77.53
2022-11-25T19:37:34.273Z,77.53
2022-11-25T19:40:15.653Z,77.70
2022-11-25T19:42:48.510Z,77.58
2022-11-25T19:45:21.692Z,77.56
2022-11-25T19:47:54.388Z,77.59
2022-11-25T19:50:29.590Z,77.63
2022-11-25T19:53:01.271Z,77.56
2022-11-25T19:55:33.979Z,77.58
2022-11-25T19:58:05.472Z,77.71
2022-11-25T20:00:37.062Z,77.69
2022-11-25T20:03:17.592Z,77.81
2022-11-25T20:05:49.964Z,77.92
2022-11-25T20:08:25.315Z,77.85
2022-11-25T20:10:57.970Z,77.83
2022-11-25T20:13:29.714Z,77.96
2022-11-25T20:16:01.606Z,77.95
2022-11-25T20:18:40.930Z,78.05
2022-11-25T20:21:21.883Z,77.99
2022-11-25T20:23:54.061Z,77.92
2022-11-25T20:26:30.561Z,77.93
2022-11-25T20:29:02.281Z,77.94
2022-11-25T20:31:33.886Z,77.94
2022-11-25T20:34:05.424Z,77.89
2022-11-25T20:36:37.109Z,77.89
2022-11-25T20:39:08.861Z,77.89
2022-11-25T20:41:40.358Z,77.81
2022-11-25T20:44:14.901Z,77.71
2022-11-25T20:46:46.456Z,77.72
2022-11-25T20:49:25.729Z,77.68
2022-11-25T20:51:57.863Z,77.72
2022-11-25T20:54:32.893Z,77.63
2022-11-25T20:57:04.479Z,77.42
2022-11-25T20:59:37.190Z,77.52
2022-11-25T21:02:09.100Z,77.49
2022-11-25T21:04:41.016Z,77.53
2022-11-25T21:07:17.717Z,77.51
2022-11-25T21:09:51.798Z,77.53
2022-11-25T21:12:23.252Z,77.45
2022-11-25T21:14:54.912Z,77.52
2022-11-25T21:17:26.884Z,77.46
2022-11-25T21:19:58.532Z,77.51
2022-11-25T21:22:30.040Z,77.57
2022-11-25T21:25:01.645Z,77.55
2022-11-25T21:27:34.169Z,77.48
2022-11-25T21:30:07.093Z,77.40
2022-11-25T21:32:38.673Z,77.36
2022-11-25T21:35:11.848Z,77.42
2022-11-25T21:37:45.562Z,77.48
2022-11-25T21:40:32.596Z,77.39
2022-11-25T21:43:06.800Z,77.30
2022-11-25T21:45:38.473Z,77.20
2022-11-25T21:48:20.961Z,77.22
2022-11-25T21:50:52.780Z,77.24
2022-11-25T21:53:24.410Z,77.16
2022-11-25T21:55:56.512Z,77.03
2022-11-25T21:58:30.416Z,77.16
2022-11-25T22:01:03.052Z,76.99
2022-11-25T22:03:35.188Z,77.13
2022-11-25T22:06:23.281Z,77.13
2022-11-25T22:08:55.324Z,77.06
2022-11-25T22:11:31.718Z,77.08
2022-11-25T22:14:06.485Z,77.20
2022-11-25T22:16:38.491Z,77.04
2022-11-25T22:19:19.269Z,77.01
2022-11-25T22:21:50.917Z,76.95
2022-11-25T22:24:23.256Z,76.96
2022-11-25T22:26:58.130Z,76.99
2022-11-25T22:29:35.310Z,76.95
2022-11-25T22:32:12.581Z,76.81
2022-11-25T22:34:44.893Z,76.84
2022-11-25T22:37:22.090Z,76.92
2022-11-25T22:39:53.604Z,77.06
2022-11-25T22:42:28.100Z,77.08
2022-11-25T22:45:01.800Z,76.87
2022-11-25T22:47:40.517Z,76.94
2022-11-25T22:50:22.120Z,76.93
2022-11-25T22:52:55.146Z,76.77
2022-11-25T22:55:28.983Z,76.76
2022-11-25T22:58:00.373Z,76.69
2022-11-25T23:00:37.494Z,76.59
2022-11-25T23:03:16.893Z,76.48
2022-11-25T23:05:49.964Z,76.43
2022-11-25T23:08:23.515Z,76.47
2022-11-25T23:10:56.124Z,76.41
2022-11-25T23:13:27.879Z,76.35
2022-11-25T23:16:01.679Z,76.26
2022-11-25T23:18:38.873Z,76.27
2022-11-25T23:21:17.737Z,76.06
2022-11-25T23:23:49.314Z,75.93
2022-11-25T23:26:20.821Z,75.91
2022-11-25T23:28:52.418Z,75.94
2022-11-25T23:31:25.518Z,75.80
2022-11-25T23:33:57.185Z,75.74
2022-11-25T23:36:36.762Z,75.74
2022-11-25T23:39:16.126Z,75.62
2022-11-25T23:41:48.750Z,75.70
2022-11-25T23:44:25.715Z,75.66
2022-11-25T23:47:00.956Z,75.76
2022-11-25T23:49:36.896Z,75.78
2022-11-25T23:52:12.994Z,75.83
2022-11-25T23:54:48.884Z,75.83
2022-11-25T23:57:23.563Z,75.71
2022-11-25T23:59:55.241Z,75.58
